Ciudad Victoria, México

10:00 AM CDT en Julio 23, 2016 (GMT -0500)
Ciudad Victoria | | Change Station

Alt 781 ft 23.70 °N, 98.96 °W | Updated 20 minutes ago

Clear
Despejado
82 ° F
Sensación térmica 87 ° F
N
7
Viento Variable Viento desde SSE

Hoy
Alta -- | Baja -- ° F
--% Posibilidad de precipitaciones
Ayer
Alta -- | Baja -- ° F
Precip. -- pul
Presión 29.96 pul
Visibilidad 10.0 Millas
Nubes Despejado
Índice de calor 87 ° F
Punto de rocío 72 ° F
Humedad 70%
Precipitaciones 0.00 pul
Espesor de la nieve No disponible.
7:01 AM 8:22 PM
Gibosa menguante, 84% visible
METAR MMCV 231440Z 15006KT 10SM SKC 28/22 A2997 RMK SLP145 52004 987
Presión 29.96 pul
Visibilidad 10.0 Millas
Nubes Despejado
Índice de calor 87 ° F
Punto de rocío 72 ° F
Humedad 70%
Precipitaciones 0.00 pul
Espesor de la nieve No disponible.
7:01 AM 8:22 PM
Gibosa menguante, 84% visible
METAR MMCV 231440Z 15006KT 10SM SKC 28/22 A2997 RMK SLP145 52004 987

10-Day Weather Forecast

No radar image for this location.
×

Almanac

Astronomía

Jul. 23, 2016 Salida Puesta
Hora real
Crepúsculo civil
Crepúsculo náutico
Crepúsculo astronómico
Luna
Horas de luz
Horas de luz
Tomorrow will be .
, % of the Moon is Illuminated

Extremos de hoy

Máximos del país Bajas del país

Community

WunderPhotos

Upload Photos

1,926,825 ¡fotos cargadas!

WunderBlog® & News

Nearby

Calidad del aire

  Calidad del aire Índice AQ Contaminante
Not available.

Grosos de nieve

Estación Profundido Altura

Actividad de terremotos

Ciudad Distance Mag. Tiempo y dato
Magnitud mínima muestra es 2,5.

Temperaturas de aguas costeras

Lugar Temperatura

Stations

Estaciones meteorológicas cercanas

Ubicación de la estación Temp. Vientos helados Punto de rocío Humedad Viento Precip. Alt Actualizado Tipo